Time;durP1;ratioP1;P1;durP2;ratioP2;P2;SDS_P1;SDS_P2;PMS_P1;PMS_P2;Temp;Humidity;BMP_temperature;BMP_pressure;BME280_temperature;BME280_humidity;BME280_pressure;Samples;Min_cycle;Max_cycle;Signal;HPM_P1;HPM_P2
2023/01/03 06:53:35;;;;;;;11.43;8.18;;;;;;;6.47;100.00;98548.08;1853943;77;21228;-58
2023/01/03 06:56:02;;;;;;;11.55;8.20;;;;;;;6.55;100.00;98548.95;1860623;77;20938;-58
2023/01/03 06:58:29;;;;;;;11.10;8.20;;;;;;;6.63;100.00;98553.83;1828848;77;21517;-58
2023/01/03 07:00:56;;;;;;;10.35;7.87;;;;;;;6.75;100.00;98565.14;1839434;77;20919;-57
2023/01/03 07:03:23;;;;;;;9.20;8.13;;;;;;;6.83;100.00;98564.66;1850337;77;21050;-58
2023/01/03 07:05:50;;;;;;;10.75;8.40;;;;;;;6.93;100.00;98559.16;1846763;77;21116;-61
2023/01/03 07:08:18;;;;;;;10.48;7.92;;;;;;;7.03;100.00;98568.57;1839592;77;20959;-60
2023/01/03 07:10:45;;;;;;;10.93;7.55;;;;;;;7.11;100.00;98570.79;1859881;77;20962;-60
2023/01/03 07:15:58;;;;;;;11.18;7.87;;;;;;;7.22;100.00;98568.47;1851614;77;20884;-58
2023/01/03 07:18:25;;;;;;;9.55;7.62;;;;;;;7.28;100.00;98575.44;1846408;77;21066;-58
2023/01/03 07:20:52;;;;;;;14.33;8.20;;;;;;;7.31;100.00;98571.75;1861328;77;20872;-59
2023/01/03 07:23:19;;;;;;;14.10;8.18;;;;;;;7.39;100.00;98577.14;1853227;77;20887;-60
2023/01/03 07:25:46;;;;;;;11.18;7.62;;;;;;;7.45;100.00;98576.11;1859440;77;20971;-58
2023/01/03 07:28:13;;;;;;;11.83;8.03;;;;;;;7.53;99.59;98578.31;1861738;77;20914;-59
2023/01/03 07:30:42;;;;;;;12.78;8.30;;;;;;;7.59;99.32;98583.94;1861407;77;21220;-58
2023/01/03 07:33:11;;;;;;;11.88;8.63;;;;;;;7.64;98.59;98584.50;1854804;77;20912;-59
2023/01/03 07:35:38;;;;;;;9.03;7.75;;;;;;;7.71;98.30;98588.55;1861084;77;20946;-59
2023/01/03 07:38:05;;;;;;;10.90;7.85;;;;;;;7.78;97.88;98590.98;1861380;77;20919;-59
2023/01/03 07:40:34;;;;;;;11.00;8.00;;;;;;;7.88;97.53;98591.87;1861908;77;20879;-58
2023/01/03 07:45:45;;;;;;;10.27;8.00;;;;;;;8.10;96.34;98587.16;1835028;77;20974;-59
2023/01/03 07:48:13;;;;;;;12.88;8.23;;;;;;;8.20;94.90;98585.89;1810440;77;20983;-59
2023/01/03 07:50:40;;;;;;;8.93;7.55;;;;;;;8.31;94.91;98580.63;1808793;79;21006;-61
2023/01/03 07:53:07;;;;;;;11.15;9.35;;;;;;;8.42;94.09;98585.75;1824564;77;21011;-59
2023/01/03 07:55:36;;;;;;;14.45;8.80;;;;;;;8.47;93.44;98588.44;1848568;77;21110;-59
2023/01/03 07:58:03;;;;;;;12.73;8.50;;;;;;;8.47;92.79;98599.64;1825783;77;20968;-60
2023/01/03 08:00:32;;;;;;;10.50;8.00;;;;;;;8.44;93.16;98598.82;1848771;77;20927;-59
2023/01/03 08:02:58;;;;;;;11.93;8.30;;;;;;;8.44;93.01;98598.30;1847593;77;21078;-58
2023/01/03 08:05:25;;;;;;;10.65;8.13;;;;;;;8.46;92.86;98594.02;1844155;77;21063;-59
2023/01/03 08:07:54;;;;;;;11.33;8.50;;;;;;;8.45;92.98;98597.25;1835907;78;21010;-59
2023/01/03 08:13:17;;;;;;;10.72;8.33;;;;;;;8.42;92.62;98603.09;1840120;78;21483;-59
2023/01/03 08:15:54;;;;;;;12.13;8.45;;;;;;;8.43;92.80;98605.24;1837513;77;21485;-61
2023/01/03 08:18:25;;;;;;;10.23;8.30;;;;;;;8.43;92.94;98594.01;1833731;77;20907;-59
2023/01/03 08:20:54;;;;;;;11.83;8.38;;;;;;;8.44;92.90;98594.81;1834863;77;21092;-61
2023/01/03 08:23:23;;;;;;;11.40;8.00;;;;;;;8.46;92.89;98596.16;1814241;78;20975;-60
2023/01/03 08:25:50;;;;;;;10.98;8.10;;;;;;;8.50;92.89;98599.91;1814204;77;21046;-56
2023/01/03 08:28:17;;;;;;;11.25;8.38;;;;;;;8.57;92.94;98609.03;1843944;77;20975;-60
2023/01/03 08:30:47;;;;;;;15.45;9.30;;;;;;;8.61;92.96;98607.44;1838454;77;21119;-59
2023/01/03 08:33:16;;;;;;;10.65;8.23;;;;;;;8.66;92.74;98614.13;1846437;77;20936;-59
2023/01/03 08:35:48;;;;;;;9.80;7.65;;;;;;;8.71;92.29;98610.14;1839359;77;20876;-58
2023/01/03 08:38:19;;;;;;;11.53;8.90;;;;;;;8.75;92.24;98613.88;1826353;77;20943;-57
2023/01/03 08:40:46;;;;;;;13.75;9.40;;;;;;;8.79;91.82;98622.97;1839367;77;20936;-59
2023/01/03 08:43:13;;;;;;;12.85;9.13;;;;;;;8.80;91.85;98622.72;1834904;77;20883;-61
2023/01/03 08:45:40;;;;;;;11.53;8.38;;;;;;;8.82;91.55;98621.11;1830912;77;21223;-61
2023/01/03 08:48:07;;;;;;;11.28;8.45;;;;;;;8.80;91.22;98631.27;1847641;77;21509;-62
2023/01/03 08:50:34;;;;;;;11.73;8.58;;;;;;;8.80;91.44;98621.91;1848569;77;20946;-58
2023/01/03 08:53:01;;;;;;;11.60;9.00;;;;;;;8.80;90.98;98629.93;1849027;77;20880;-60
2023/01/03 08:55:28;;;;;;;14.25;9.98;;;;;;;8.80;90.93;98620.58;1849564;77;20888;-61
2023/01/03 08:57:55;;;;;;;12.10;8.93;;;;;;;8.77;90.84;98625.91;1841630;77;21120;-57
2023/01/03 09:00:22;;;;;;;13.62;8.43;;;;;;;8.75;91.22;98629.91;1827688;77;21463;-58
2023/01/03 09:02:50;;;;;;;11.93;9.15;;;;;;;8.74;91.33;98629.63;1816613;77;20953;-60
2023/01/03 09:05:17;;;;;;;13.80;9.58;;;;;;;8.75;91.37;98636.06;1836649;77;20924;-58
2023/01/03 09:07:50;;;;;;;14.90;9.58;;;;;;;8.78;91.22;98632.06;1828818;77;20944;-61
2023/01/03 09:10:18;;;;;;;13.38;9.38;;;;;;;8.80;91.47;98633.94;1833687;77;20911;-61
2023/01/03 09:12:45;;;;;;;12.40;8.70;;;;;;;8.84;91.35;98643.83;1830331;77;21089;-61
2023/01/03 09:15:12;;;;;;;14.95;9.43;;;;;;;8.87;91.27;98635.83;1832096;77;21005;-61
2023/01/03 09:17:43;;;;;;;12.55;9.43;;;;;;;8.91;90.97;98643.57;1838439;77;21059;-59
2023/01/03 09:20:11;;;;;;;12.40;9.00;;;;;;;8.94;91.02;98641.72;1833670;77;20951;-61
2023/01/03 09:22:43;;;;;;;13.93;9.40;;;;;;;8.97;91.07;98639.05;1829161;77;21199;-62
2023/01/03 09:25:10;;;;;;;13.55;9.75;;;;;;;9.01;91.05;98633.45;1835624;77;21419;-58
2023/01/03 09:27:42;;;;;;;13.88;9.55;;;;;;;9.03;90.93;98642.80;1834547;77;20986;-57
2023/01/03 09:30:12;;;;;;;12.90;9.40;;;;;;;9.05;90.73;98646.53;1799581;77;21069;-56
2023/01/03 09:32:40;;;;;;;12.63;9.53;;;;;;;9.06;90.79;98634.80;1835638;77;20954;-60
2023/01/03 09:35:08;;;;;;;16.60;10.88;;;;;;;9.06;90.77;98640.95;1832137;77;22009;-59
2023/01/03 09:37:36;;;;;;;16.27;11.05;;;;;;;9.08;90.79;98642.81;1836150;77;20929;-62
2023/01/03 09:40:05;;;;;;;12.93;9.55;;;;;;;9.11;90.87;98642.83;1838448;77;21046;-58
2023/01/03 09:45:28;;;;;;;12.93;9.63;;;;;;;9.09;90.68;98648.41;1738511;81;21027;-59
2023/01/03 09:47:55;;;;;;;16.82;10.13;;;;;;;9.03;90.96;98646.81;1758085;79;21122;-61
